Terminal Aerodrome Forecast
Issued by NWS

Home | Current Version | Previous Version | Text Only | Print | Product List | Glossary On
Versions: 1 2 3 4 5 6 7 8 9 10 11 12 13 14 15 16 17 18 19 20 21 22 23 24 25 26
249
FTUS43 KDLH 090334 AAB
TAFHYR
TAF AMD
KHYR 090334Z 0904/0924 33008G15KT 6SM -SN SCT035 OVC050
      TEMPO 0904/0908 2SM -SN BKN020 OVC040
     FM090800 35008G16KT 6SM -SN BKN025 OVC040
     FM091000 35006KT 5SM -SN BKN025
     FM091600 35007KT P6SM BKN030=

USA.gov is the U.S. government's official web portal to all federal, state and local government web resources and services.